Hlavní strana
METAR-TAF:

METAR-TAF

Letiště :

Karup, Dánsko

zeměpisná šířka: 56-18N, zeměpisná délka: 009-07E, výška: 52 m

Aktuální stav počasí

Zpráva byla vytvořena před 11 minutami, v 03:07 UTC
Jihojihozápadní vítr 8 kt
Teplota 2°C
Vlhkost vzduchu 87%
Tlak 1015 hPa
Viditelnost 10 km a více
slabý déšť

METAR: EKKA 210307Z AUTO 20008KT 9999NDV -RA OVC014/// 02/00 Q1015 R27L/390093

Čas: 04:18 (03:18 UTC)

Předpověď počasí

Zpráva byla vytvořena před 57 minutami, v 02:21 UTC
Předpověď platná od 21 v 03 UTC do 21 v 24 UTC
Jihojihozápadní vítr 8 kt
Viditelnost: 8000 m
Oblačno až skoro zataženo ve výšce 2000 ft
Změna
od 21 v 03 UTC do 21 v 05 UTC
Viditelnost: 1800 m
Oblačno až skoro zataženo ve výšce 500 ft
sníh, déšť
Změna
od 21 v 05 UTC do 21 v 07 UTC
Západní vítr 10 kt
Viditelnost 10 km a více
Polojasno ve výšce 2000 ft
Změna
od 21 v 22 UTC do 21 v 24 UTC
Jižní vítr 5 kt

TAF: EKKA 210221Z 2103/2124 21008KT 8000 BKN020 BECMG 2103/2105 1800 SNRA BKN005 BECMG 2105/2107 28010KT 9999 NSW SCT020 BECMG 2122/2124 18005KT

Stav a předpovědi počasí z více než 4 000 letišť (zprávy METAR a TAF).

Červené a žluté tečky na mapě představují dostupné meteorologické stanice.

Když kurzor umístíte na tečku, zobrazí se název stanice.

Pak kliknutím zobrazíte stav a předpověď počasí.

Chcete-li změnit mapu, kliknutím na zelené tlačítko se znaménkem +mapu přiblížíte, kliknutím na zelené tlačítko se znaménkem – mapu oddálíte a kliknutím na zelené šipky přejdete na sousední mapy.


METAR-TAF: